createdAt,value
2019-05-03T00:00:16.755Z,99.90
2019-05-03T00:02:48.073Z,99.90
2019-05-03T00:05:22.108Z,99.90
2019-05-03T00:07:53.477Z,99.90
2019-05-03T00:10:23.255Z,99.80
2019-05-03T00:12:52.891Z,99.70
2019-05-03T00:15:32.228Z,99.70
2019-05-03T00:18:02.385Z,99.60
2019-05-03T00:20:32.649Z,99.90
2019-05-03T00:23:02.932Z,99.50
2019-05-03T00:25:32.766Z,99.50
2019-05-03T00:28:02.235Z,99.50
2019-05-03T00:30:32.107Z,99.40
2019-05-03T00:33:02.865Z,99.20
2019-05-03T00:35:34.207Z,99.20
2019-05-03T00:38:05.326Z,99.20
2019-05-03T00:40:34.802Z,99.10
2019-05-03T00:43:04.281Z,99.00
2019-05-03T00:45:33.744Z,99.00
2019-05-03T00:48:03.238Z,99.00
2019-05-03T00:50:32.724Z,98.90
2019-05-03T00:53:02.487Z,98.90
2019-05-03T00:55:32.815Z,98.90
2019-05-03T00:58:02.640Z,98.90
2019-05-03T01:00:32.707Z,98.90
2019-05-03T01:03:02.393Z,98.90
2019-05-03T01:05:33.094Z,99.00
2019-05-03T01:08:03.101Z,99.00
2019-05-03T01:10:33.148Z,99.00
2019-05-03T01:13:02.903Z,99.00
2019-05-03T01:15:34.098Z,99.00
2019-05-03T01:18:05.232Z,99.10
2019-05-03T01:20:34.785Z,99.10
2019-05-03T01:23:04.365Z,99.20
2019-05-03T01:25:35.541Z,99.30
2019-05-03T01:28:05.620Z,99.40
2019-05-03T01:30:35.139Z,99.40
2019-05-03T01:33:04.779Z,99.70
2019-05-03T01:35:34.348Z,99.80
2019-05-03T01:38:03.831Z,99.90
2019-05-03T01:40:33.359Z,99.90
2019-05-03T01:43:02.892Z,99.90
2019-05-03T01:45:32.402Z,99.90
2019-05-03T01:48:04.278Z,99.90
2019-05-03T01:50:36.223Z,99.90
2019-05-03T01:53:16.379Z,99.90
2019-05-03T01:55:52.302Z,99.90
2019-05-03T01:58:24.102Z,99.90
2019-05-03T02:00:55.835Z,99.90
2019-05-03T02:03:45.173Z,99.90
2019-05-03T02:06:14.728Z,99.90
2019-05-03T02:08:44.198Z,99.90
2019-05-03T02:11:13.663Z,99.90
2019-05-03T02:13:43.138Z,99.90
2019-05-03T02:16:12.650Z,99.90
2019-05-03T02:18:42.471Z,99.90
2019-05-03T02:21:12.340Z,99.90
2019-05-03T02:23:42.540Z,99.90
2019-05-03T02:26:12.253Z,99.90
2019-05-03T02:28:42.133Z,99.90
2019-05-03T02:31:13.767Z,99.90
2019-05-03T02:33:43.498Z,99.90
2019-05-03T02:36:13.724Z,99.90
2019-05-03T02:38:43.518Z,99.90
2019-05-03T02:41:13.640Z,99.90
2019-05-03T02:43:47.593Z,99.90
2019-05-03T02:46:18.733Z,99.90
2019-05-03T02:49:01.962Z,99.90
2019-05-03T02:51:31.426Z,99.90
2019-05-03T02:54:00.907Z,99.90
2019-05-03T02:56:30.384Z,99.90
2019-05-03T02:58:59.938Z,99.90
2019-05-03T03:01:30.443Z,99.90
2019-05-03T03:04:01.018Z,99.90
2019-05-03T03:06:32.385Z,99.90
2019-05-03T03:09:05.500Z,99.90
2019-05-03T03:11:38.863Z,99.90
2019-05-03T03:14:12.430Z,99.90
2019-05-03T03:16:45.872Z,99.90
2019-05-03T03:19:17.730Z,99.90
2019-05-03T03:21:50.569Z,99.90
2019-05-03T03:24:27.246Z,99.90
2019-05-03T03:26:59.732Z,99.90
2019-05-03T03:29:29.456Z,99.90
2019-05-03T03:32:18.523Z,99.90
2019-05-03T03:35:01.823Z,99.90
2019-05-03T03:37:26.837Z,99.90
2019-05-03T03:39:56.510Z,99.90
2019-05-03T03:42:26.187Z,99.90
2019-05-03T03:44:58.106Z,99.90
2019-05-03T03:47:32.178Z,99.90
2019-05-03T03:50:05.906Z,99.90
2019-05-03T03:52:36.803Z,99.90
2019-05-03T03:55:07.082Z,99.90
2019-05-03T03:57:36.971Z,99.90
2019-05-03T04:00:08.834Z,99.90
2019-05-03T04:02:39.818Z,99.90
2019-05-03T04:05:10.432Z,99.90
2019-05-03T04:07:40.315Z,99.90
2019-05-03T04:10:10.704Z,99.90
2019-05-03T04:12:42.053Z,99.90
2019-05-03T04:15:29.635Z,99.90
2019-05-03T04:18:10.735Z,99.90
2019-05-03T04:20:40.262Z,99.90
2019-05-03T04:23:09.796Z,99.90
2019-05-03T04:25:40.262Z,99.90
2019-05-03T04:28:10.222Z,99.90
2019-05-03T04:30:39.862Z,99.90
2019-05-03T04:33:09.394Z,99.90
2019-05-03T04:35:39.017Z,99.90
2019-05-03T04:38:08.474Z,99.90
2019-05-03T04:40:37.919Z,99.90
2019-05-03T04:43:07.432Z,99.90
2019-05-03T04:45:37.011Z,99.90
2019-05-03T04:48:07.065Z,99.90
2019-05-03T04:50:37.121Z,99.90
2019-05-03T04:53:07.096Z,99.90
2019-05-03T04:55:36.727Z,99.90
2019-05-03T04:58:06.201Z,99.90
2019-05-03T05:00:36.090Z,99.90
2019-05-03T05:03:06.264Z,99.90
2019-05-03T05:05:36.389Z,99.90
2019-05-03T05:08:06.304Z,99.90
2019-05-03T05:10:36.420Z,99.90
2019-05-03T05:13:06.156Z,99.90
2019-05-03T05:15:35.705Z,99.90
2019-05-03T05:18:07.514Z,99.90
2019-05-03T05:20:41.329Z,99.90
2019-05-03T05:23:10.749Z,99.90
2019-05-03T05:25:41.905Z,99.90
2019-05-03T05:28:14.889Z,99.90
2019-05-03T05:30:54.602Z,99.90
2019-05-03T05:33:25.225Z,99.90
2019-05-03T05:35:54.880Z,99.90
2019-05-03T05:38:25.563Z,99.90
2019-05-03T05:40:55.622Z,99.90
2019-05-03T05:43:25.621Z,99.90
2019-05-03T05:45:58.654Z,99.90
2019-05-03T05:48:31.290Z,99.90
2019-05-03T05:51:00.742Z,99.90
2019-05-03T05:53:30.217Z,99.90
2019-05-03T05:56:05.036Z,99.80
2019-05-03T05:58:38.848Z,99.80
2019-05-03T06:01:09.961Z,99.70
2019-05-03T06:03:39.416Z,99.70
2019-05-03T06:06:10.587Z,99.70
2019-05-03T06:08:47.303Z,99.10
2019-05-03T06:11:21.187Z,98.90
2019-05-03T06:13:52.265Z,98.90
2019-05-03T06:16:24.557Z,98.70
2019-05-03T06:18:55.792Z,98.60
2019-05-03T06:21:26.901Z,98.60
2019-05-03T06:24:00.684Z,98.50
2019-05-03T06:26:48.214Z,98.30
2019-05-03T06:29:17.672Z,98.00
2019-05-03T06:32:06.896Z,98.10
2019-05-03T06:34:36.712Z,98.20
2019-05-03T06:37:16.844Z,97.80
2019-05-03T06:39:46.287Z,97.90
2019-05-03T06:42:19.152Z,97.80
2019-05-03T06:44:46.980Z,97.80
2019-05-03T06:47:16.380Z,97.30
2019-05-03T06:49:48.414Z,96.50
2019-05-03T06:52:19.648Z,96.30
2019-05-03T06:54:48.083Z,96.50
2019-05-03T06:57:19.280Z,96.50
2019-05-03T06:59:50.363Z,96.60
2019-05-03T07:02:30.287Z,96.10
2019-05-03T07:05:01.362Z,96.20
2019-05-03T07:07:41.683Z,95.70
2019-05-03T07:10:25.022Z,94.50
2019-05-03T07:13:01.622Z,94.40
2019-05-03T07:15:31.216Z,94.10
2019-05-03T07:18:00.715Z,93.30
2019-05-03T07:20:31.787Z,93.40
2019-05-03T07:23:01.259Z,93.30
2019-05-03T07:25:30.668Z,92.70
2019-05-03T07:28:00.087Z,92.60
2019-05-03T07:30:29.518Z,92.40
2019-05-03T07:33:00.593Z,92.70
2019-05-03T07:35:30.041Z,92.20
2019-05-03T07:37:59.471Z,92.20
2019-05-03T07:40:28.946Z,92.00
2019-05-03T07:42:58.376Z,91.40
2019-05-03T07:45:27.867Z,90.70
2019-05-03T07:47:57.305Z,90.90
2019-05-03T07:50:26.717Z,91.40
2019-05-03T07:52:56.134Z,90.70
2019-05-03T07:55:45.692Z,90.40
2019-05-03T07:58:25.385Z,90.70
2019-05-03T08:01:06.084Z,90.40
2019-05-03T08:03:30.295Z,87.90
2019-05-03T08:05:59.879Z,89.30
2019-05-03T08:08:29.372Z,89.20
2019-05-03T08:10:58.978Z,88.20
2019-05-03T08:13:28.452Z,89.00
2019-05-03T08:15:57.928Z,88.10
2019-05-03T08:18:27.358Z,85.00
2019-05-03T08:20:56.763Z,84.50
2019-05-03T08:23:29.875Z,84.70
2019-05-03T08:25:57.344Z,85.50
2019-05-03T08:28:26.761Z,85.80
2019-05-03T08:30:57.821Z,86.40
2019-05-03T08:33:38.114Z,84.60
2019-05-03T08:36:07.596Z,83.80
2019-05-03T08:38:37.027Z,85.50
2019-05-03T08:41:08.105Z,83.40
2019-05-03T08:43:37.591Z,83.40
2019-05-03T08:46:07.006Z,84.30
2019-05-03T08:48:36.449Z,83.00
2019-05-03T08:51:06.032Z,83.80
2019-05-03T08:53:35.943Z,83.30
2019-05-03T08:56:05.598Z,84.40
2019-05-03T08:58:35.007Z,80.30
2019-05-03T09:01:05.691Z,82.00
2019-05-03T09:03:38.234Z,82.30
2019-05-03T09:06:06.788Z,82.70
2019-05-03T09:08:36.189Z,83.70
2019-05-03T09:11:10.172Z,83.20
2019-05-03T09:13:45.034Z,82.80
2019-05-03T09:16:14.856Z,81.50
2019-05-03T09:18:45.417Z,81.60
2019-05-03T09:21:14.975Z,81.20
2019-05-03T09:23:45.032Z,76.60
2019-05-03T09:26:15.242Z,76.60
2019-05-03T09:28:45.511Z,75.50
2019-05-03T09:31:15.643Z,78.20
2019-05-03T09:33:45.388Z,78.10
2019-05-03T09:36:14.954Z,72.10
2019-05-03T09:38:45.810Z,71.70
2019-05-03T09:41:15.447Z,72.20
2019-05-03T09:43:45.237Z,72.70
2019-05-03T09:46:14.830Z,68.70
2019-05-03T09:48:45.330Z,67.90
2019-05-03T09:51:15.106Z,66.80
2019-05-03T09:53:46.205Z,66.50
2019-05-03T09:56:16.379Z,66.40
2019-05-03T09:58:46.204Z,67.60
2019-05-03T10:01:15.705Z,70.00
2019-05-03T10:03:45.317Z,67.80
2019-05-03T10:06:17.453Z,68.90
2019-05-03T10:08:46.046Z,69.50
2019-05-03T10:11:15.846Z,68.20
2019-05-03T10:13:48.337Z,67.30
2019-05-03T10:16:16.604Z,67.30
2019-05-03T10:18:46.253Z,65.10
2019-05-03T10:21:15.826Z,64.80
2019-05-03T10:23:45.514Z,65.50
2019-05-03T10:26:15.287Z,65.80
2019-05-03T10:28:44.796Z,67.50
2019-05-03T10:31:14.687Z,67.50
2019-05-03T10:33:48.670Z,64.70
2019-05-03T10:36:18.082Z,64.70
2019-05-03T10:38:47.504Z,63.70
2019-05-03T10:41:17.043Z,63.00
2019-05-03T10:43:46.446Z,63.60
2019-05-03T10:46:16.149Z,60.70
2019-05-03T10:48:45.783Z,60.10
2019-05-03T10:51:15.926Z,61.70
2019-05-03T10:53:47.295Z,62.90
2019-05-03T10:56:24.524Z,62.10
2019-05-03T10:58:59.679Z,64.40
2019-05-03T11:01:35.719Z,63.20
2019-05-03T11:04:05.578Z,64.90
2019-05-03T11:06:35.470Z,64.70
2019-05-03T11:09:06.508Z,63.80
2019-05-03T11:11:36.012Z,64.00
2019-05-03T11:14:05.780Z,65.30
2019-05-03T11:16:35.375Z,64.90
2019-05-03T11:19:05.482Z,62.70
2019-05-03T11:21:35.111Z,63.10
2019-05-03T11:24:04.563Z,61.40
2019-05-03T11:26:34.946Z,60.90
2019-05-03T11:29:05.287Z,61.50
2019-05-03T11:31:45.611Z,60.90
2019-05-03T11:34:16.646Z,60.90
2019-05-03T11:36:54.898Z,60.70
2019-05-03T11:39:25.084Z,57.80
2019-05-03T11:41:58.979Z,57.90
2019-05-03T11:44:40.214Z,58.70
2019-05-03T11:47:09.824Z,58.90
2019-05-03T11:49:39.300Z,59.20
2019-05-03T11:52:08.909Z,60.00
2019-05-03T11:54:38.357Z,59.40
2019-05-03T11:57:09.412Z,58.30
2019-05-03T11:59:38.840Z,57.80
2019-05-03T12:02:26.215Z,57.90
2019-05-03T12:04:55.986Z,58.00
2019-05-03T12:07:40.016Z,56.20
2019-05-03T12:10:16.395Z,57.50
2019-05-03T12:12:44.039Z,57.30
2019-05-03T12:15:15.185Z,57.20
2019-05-03T12:17:54.243Z,55.10
2019-05-03T12:20:19.338Z,54.40
2019-05-03T12:22:49.696Z,54.10
2019-05-03T12:25:20.320Z,54.10
2019-05-03T12:27:50.158Z,54.40
2019-05-03T12:30:20.080Z,55.40
2019-05-03T12:32:49.584Z,55.50
2019-05-03T12:35:18.899Z,54.90
2019-05-03T12:37:48.499Z,55.50
2019-05-03T12:40:17.985Z,55.30
2019-05-03T12:42:47.470Z,56.20
2019-05-03T12:45:16.996Z,56.70
2019-05-03T12:47:46.390Z,57.20
2019-05-03T12:50:16.418Z,56.90
2019-05-03T12:52:50.520Z,57.60
2019-05-03T12:55:17.064Z,58.20
2019-05-03T12:57:46.470Z,57.00
2019-05-03T13:00:25.126Z,57.80
2019-05-03T13:03:11.457Z,57.90
2019-05-03T13:05:40.899Z,58.20
2019-05-03T13:08:39.687Z,59.30
2019-05-03T13:11:09.513Z,59.00
2019-05-03T13:13:39.219Z,59.30
2019-05-03T13:16:10.503Z,59.00
2019-05-03T13:18:39.957Z,59.50
2019-05-03T13:21:09.546Z,59.90
2019-05-03T13:23:39.002Z,59.80
2019-05-03T13:26:08.557Z,59.80
2019-05-03T13:28:38.037Z,59.10
2019-05-03T13:31:07.569Z,60.30
2019-05-03T13:33:37.206Z,61.10
2019-05-03T13:36:06.823Z,61.80
2019-05-03T13:38:36.344Z,62.00
2019-05-03T13:41:06.664Z,62.00
2019-05-03T13:43:36.368Z,60.70
2019-05-03T13:46:05.925Z,62.00
2019-05-03T13:48:44.877Z,61.30
2019-05-03T13:51:06.753Z,62.30
2019-05-03T13:53:36.200Z,62.40
2019-05-03T13:56:06.082Z,63.40
2019-05-03T13:58:36.046Z,63.40
2019-05-03T14:01:05.907Z,62.90
2019-05-03T14:03:35.997Z,63.80
2019-05-03T14:06:08.380Z,63.30
2019-05-03T14:08:36.749Z,63.30
2019-05-03T14:11:06.522Z,64.10
2019-05-03T14:13:36.122Z,65.10
2019-05-03T14:16:06.430Z,66.10
2019-05-03T14:18:36.281Z,66.20
2019-05-03T14:24:09.801Z,67.30
2019-05-03T14:26:40.778Z,67.30
2019-05-03T14:29:10.822Z,68.40
2019-05-03T14:31:40.249Z,68.90
2019-05-03T14:34:09.686Z,69.70
2019-05-03T14:36:39.089Z,70.20
2019-05-03T14:39:10.244Z,70.40
2019-05-03T14:41:40.663Z,71.10
2019-05-03T14:44:10.091Z,72.20
2019-05-03T14:46:39.770Z,72.70
2019-05-03T14:49:09.273Z,73.20
2019-05-03T14:51:38.771Z,74.00
2019-05-03T14:54:09.361Z,74.30
2019-05-03T14:56:40.449Z,74.30
2019-05-03T14:59:27.777Z,74.60
2019-05-03T15:02:08.039Z,75.20
2019-05-03T15:04:37.469Z,76.00
2019-05-03T15:07:06.997Z,76.40
2019-05-03T15:09:36.457Z,76.80
2019-05-03T15:12:06.251Z,77.50
2019-05-03T15:14:35.781Z,76.70
2019-05-03T15:17:05.528Z,77.40
2019-05-03T15:19:35.322Z,77.20
2019-05-03T15:22:05.602Z,78.00
2019-05-03T15:24:35.434Z,78.50
2019-05-03T15:27:05.085Z,79.40
2019-05-03T15:29:35.499Z,80.70
2019-05-03T15:32:05.367Z,81.50
2019-05-03T15:34:35.565Z,81.70
2019-05-03T15:37:05.743Z,81.70
2019-05-03T15:39:35.524Z,82.00
2019-05-03T15:42:05.499Z,82.10
2019-05-03T15:44:51.698Z,82.50
2019-05-03T15:47:31.632Z,82.90
2019-05-03T15:50:01.237Z,83.20
2019-05-03T15:52:30.686Z,83.60
2019-05-03T15:55:00.240Z,83.40
2019-05-03T15:57:29.732Z,83.80
2019-05-03T15:59:59.196Z,83.80
2019-05-03T16:02:28.603Z,84.10
2019-05-03T16:04:58.802Z,84.10
2019-05-03T16:07:28.523Z,84.60
2019-05-03T16:09:58.014Z,84.80
2019-05-03T16:12:27.511Z,83.90
2019-05-03T16:14:56.955Z,84.20
2019-05-03T16:17:26.420Z,84.00
2019-05-03T16:19:55.892Z,83.40
2019-05-03T16:22:25.419Z,83.30
2019-05-03T16:24:55.686Z,82.70
2019-05-03T16:27:30.159Z,83.00
2019-05-03T16:30:00.409Z,82.80
2019-05-03T16:32:29.862Z,82.70
2019-05-03T16:34:59.348Z,82.40
2019-05-03T16:37:29.083Z,82.30
2019-05-03T16:39:58.685Z,82.20
2019-05-03T16:42:28.297Z,82.60
2019-05-03T16:44:57.882Z,82.80
2019-05-03T16:47:27.398Z,83.00
2019-05-03T16:49:56.952Z,83.30
2019-05-03T16:52:26.492Z,83.60
2019-05-03T16:54:56.243Z,83.70
2019-05-03T16:57:25.708Z,83.90
2019-05-03T16:59:55.186Z,84.20
2019-05-03T17:02:24.756Z,84.50
2019-05-03T17:05:01.776Z,84.70
2019-05-03T17:07:32.905Z,85.10
2019-05-03T17:10:04.866Z,85.80
2019-05-03T17:12:37.575Z,85.00
2019-05-03T17:15:11.004Z,85.00
2019-05-03T17:17:40.482Z,86.00
2019-05-03T17:20:10.871Z,85.30
2019-05-03T17:22:40.366Z,85.70
2019-05-03T17:25:10.032Z,85.70
2019-05-03T17:27:39.464Z,85.70
2019-05-03T17:30:09.992Z,86.10
2019-05-03T17:32:39.471Z,86.10
2019-05-03T17:35:09.227Z,86.60
2019-05-03T17:37:38.784Z,86.90
2019-05-03T17:40:10.317Z,87.30
2019-05-03T17:42:54.695Z,87.40
2019-05-03T17:45:26.057Z,87.30
2019-05-03T17:47:55.584Z,87.50
2019-05-03T17:50:25.160Z,87.70
2019-05-03T17:53:14.620Z,88.10
2019-05-03T17:56:01.784Z,88.20
2019-05-03T17:58:48.928Z,88.30
2019-05-03T18:01:22.866Z,88.40
2019-05-03T18:04:03.907Z,89.50
2019-05-03T18:06:26.871Z,88.40
2019-05-03T18:08:57.960Z,88.50
2019-05-03T18:11:34.774Z,88.80
2019-05-03T18:14:05.558Z,88.90
2019-05-03T18:16:35.113Z,89.00
2019-05-03T18:19:05.200Z,89.00
2019-05-03T18:21:35.497Z,89.10
2019-05-03T18:24:05.331Z,89.20
2019-05-03T18:26:35.530Z,89.30
2019-05-03T18:29:05.835Z,89.60
2019-05-03T18:31:35.373Z,89.60
2019-05-03T18:34:06.353Z,89.70
2019-05-03T18:36:36.077Z,90.10
2019-05-03T18:39:08.347Z,90.10
2019-05-03T18:41:37.842Z,90.20
2019-05-03T18:44:09.027Z,90.40
2019-05-03T18:46:40.103Z,90.40
2019-05-03T18:49:09.610Z,90.60
2019-05-03T18:51:39.149Z,90.50
2019-05-03T18:54:08.757Z,90.60
2019-05-03T18:56:38.258Z,90.60
2019-05-03T18:59:07.797Z,90.70
2019-05-03T19:01:37.271Z,90.80
2019-05-03T19:04:14.671Z,90.90
2019-05-03T19:06:45.175Z,90.90
2019-05-03T19:09:34.521Z,90.90
2019-05-03T19:12:12.293Z,90.90
2019-05-03T19:14:41.899Z,91.00
2019-05-03T19:17:21.983Z,91.10
2019-05-03T19:19:56.274Z,91.00
2019-05-03T19:22:25.944Z,91.10
2019-05-03T19:24:55.448Z,91.10
2019-05-03T19:27:25.249Z,91.10
2019-05-03T19:29:55.483Z,91.20
2019-05-03T19:32:28.198Z,91.20
2019-05-03T19:34:56.330Z,91.30
2019-05-03T19:37:25.974Z,91.40
2019-05-03T19:39:55.435Z,91.50
2019-05-03T19:42:27.400Z,91.60
2019-05-03T19:44:56.006Z,91.60
2019-05-03T19:47:25.481Z,91.50
2019-05-03T19:49:54.937Z,91.50
2019-05-03T19:52:26.201Z,91.50
2019-05-03T19:54:55.672Z,91.80
2019-05-03T19:57:35.706Z,91.70
2019-05-03T20:00:08.441Z,91.70
2019-05-03T20:02:39.523Z,91.70
2019-05-03T20:05:28.809Z,91.70
2019-05-03T20:08:15.421Z,91.60
2019-05-03T20:10:46.588Z,91.60
2019-05-03T20:13:16.195Z,91.60
2019-05-03T20:15:45.668Z,91.80
2019-05-03T20:18:17.769Z,91.80
2019-05-03T20:20:46.415Z,91.80
2019-05-03T20:23:15.848Z,91.80
2019-05-03T20:25:45.277Z,91.70
2019-05-03T20:28:15.830Z,91.80
2019-05-03T20:30:45.331Z,91.80
2019-05-03T20:33:14.772Z,91.80
2019-05-03T20:35:45.172Z,91.80
2019-05-03T20:38:15.234Z,91.80
2019-05-03T20:40:45.109Z,91.90
2019-05-03T20:43:16.311Z,91.80
2019-05-03T20:46:02.447Z,91.80
2019-05-03T20:48:31.965Z,91.90
2019-05-03T20:51:01.401Z,92.00
2019-05-03T20:53:31.171Z,92.00
2019-05-03T20:56:00.694Z,91.90
2019-05-03T20:58:30.127Z,91.90
2019-05-03T21:00:59.583Z,91.90
2019-05-03T21:03:29.048Z,92.00
2019-05-03T21:05:58.484Z,91.90
2019-05-03T21:08:27.935Z,91.90
2019-05-03T21:10:57.418Z,91.80
2019-05-03T21:13:39.272Z,91.80
2019-05-03T21:15:59.771Z,91.80
2019-05-03T21:18:36.842Z,92.00
2019-05-03T21:21:20.639Z,92.30
2019-05-03T21:23:57.495Z,92.50
2019-05-03T21:26:26.976Z,92.50
2019-05-03T21:28:56.444Z,92.60
2019-05-03T21:31:25.919Z,92.80
2019-05-03T21:33:55.504Z,93.10
2019-05-03T21:36:25.469Z,93.10
2019-05-03T21:38:55.063Z,93.40
2019-05-03T21:41:27.374Z,94.10
2019-05-03T21:43:56.811Z,94.20
2019-05-03T21:46:30.652Z,94.30
2019-05-03T21:49:01.782Z,94.70
2019-05-03T21:51:31.249Z,94.90
2019-05-03T21:54:00.701Z,94.90
2019-05-03T21:56:30.195Z,95.30
2019-05-03T21:58:59.616Z,95.40
2019-05-03T22:01:29.483Z,95.70
2019-05-03T22:03:58.936Z,95.60
2019-05-03T22:06:28.362Z,95.70
2019-05-03T22:08:58.425Z,95.80
2019-05-03T22:11:28.001Z,96.00
2019-05-03T22:14:01.446Z,96.10
2019-05-03T22:16:31.884Z,96.10
2019-05-03T22:19:01.406Z,96.20
2019-05-03T22:21:34.686Z,96.20
2019-05-03T22:24:05.342Z,96.20
2019-05-03T22:26:54.848Z,96.20
2019-05-03T22:29:25.439Z,96.20
2019-05-03T22:31:55.104Z,96.30
2019-05-03T22:34:25.818Z,96.30
2019-05-03T22:36:55.510Z,96.50
2019-05-03T22:39:25.268Z,96.90
2019-05-03T22:41:54.849Z,96.50
2019-05-03T22:44:25.290Z,96.50
2019-05-03T22:46:55.238Z,96.60
2019-05-03T22:49:26.022Z,96.70
2019-05-03T22:51:55.659Z,96.80
2019-05-03T22:54:25.156Z,96.90
2019-05-03T22:56:55.456Z,96.90
2019-05-03T22:59:26.789Z,97.20
2019-05-03T23:01:56.213Z,96.90
2019-05-03T23:04:25.653Z,97.00
2019-05-03T23:06:55.693Z,97.10
2019-05-03T23:09:25.217Z,97.60
2019-05-03T23:11:55.168Z,97.80
2019-05-03T23:14:25.713Z,97.80
2019-05-03T23:16:55.165Z,97.80
2019-05-03T23:19:24.613Z,97.80
2019-05-03T23:22:01.730Z,97.80
2019-05-03T23:24:31.175Z,98.00
2019-05-03T23:27:00.780Z,97.60
2019-05-03T23:29:30.312Z,97.50
2019-05-03T23:31:59.719Z,97.80
2019-05-03T23:34:29.156Z,97.70
2019-05-03T23:36:58.599Z,98.10
2019-05-03T23:39:28.067Z,98.10
2019-05-03T23:41:57.551Z,98.10
2019-05-03T23:44:27.020Z,98.10
2019-05-03T23:47:00.984Z,98.10
2019-05-03T23:49:30.433Z,98.40
2019-05-03T23:52:01.630Z,98.40
2019-05-03T23:54:31.130Z,99.10
2019-05-03T23:57:00.542Z,98.70
2019-05-03T23:59:30.009Z,98.80
